createdAt,value
2022-08-03T00:00:21.314Z,21.17
2022-08-03T00:02:48.074Z,21.07
2022-08-03T00:05:14.814Z,21.06
2022-08-03T00:07:41.462Z,21.01
2022-08-03T00:10:08.700Z,21.06
2022-08-03T00:12:36.470Z,20.91
2022-08-03T00:15:04.075Z,20.97
2022-08-03T00:17:53.014Z,20.94
2022-08-03T00:20:21.538Z,20.93
2022-08-03T00:22:48.580Z,20.93
2022-08-03T00:25:15.304Z,20.93
2022-08-03T00:27:42.065Z,21.00
2022-08-03T00:30:09.196Z,20.97
2022-08-03T00:32:35.830Z,20.97
2022-08-03T00:35:08.124Z,21.04
2022-08-03T00:37:41.452Z,21.03
2022-08-03T00:40:13.712Z,21.01
2022-08-03T00:42:50.656Z,20.97
2022-08-03T00:45:18.586Z,20.93
2022-08-03T00:47:45.892Z,20.94
2022-08-03T00:50:13.154Z,20.83
2022-08-03T00:52:40.037Z,20.93
2022-08-03T00:55:06.907Z,20.88
2022-08-03T00:57:33.703Z,20.79
2022-08-03T01:00:00.957Z,20.91
2022-08-03T01:02:28.871Z,20.90
2022-08-03T01:04:56.022Z,20.83
2022-08-03T01:07:35.800Z,20.84
2022-08-03T01:10:12.540Z,20.76
2022-08-03T01:12:48.817Z,20.75
2022-08-03T01:15:43.629Z,20.70
2022-08-03T01:18:18.528Z,20.56
2022-08-03T01:20:49.486Z,20.49
2022-08-03T01:23:59.111Z,20.53
2022-08-03T01:26:53.762Z,20.60
2022-08-03T01:29:58.571Z,20.67
2022-08-03T01:33:00.126Z,20.49
2022-08-03T01:35:44.832Z,20.46
2022-08-03T01:38:21.040Z,20.33
2022-08-03T01:40:49.070Z,20.15
2022-08-03T01:44:28.057Z,20.15
2022-08-03T01:46:08.735Z,20.19
2022-08-03T01:48:38.067Z,20.33
2022-08-03T01:51:05.372Z,20.22
2022-08-03T01:53:33.876Z,20.14
2022-08-03T01:56:02.926Z,20.17
2022-08-03T01:58:31.154Z,20.09
2022-08-03T02:01:01.159Z,20.07
2022-08-03T02:03:30.039Z,19.98
2022-08-03T02:06:59.608Z,19.84
2022-08-03T02:08:48.496Z,19.84
2022-08-03T02:11:15.511Z,19.85
2022-08-03T02:13:44.174Z,19.80
2022-08-03T02:16:12.791Z,19.75
2022-08-03T02:18:40.643Z,19.68
2022-08-03T02:21:11.094Z,19.59
2022-08-03T02:23:38.836Z,19.67
2022-08-03T02:26:09.415Z,19.70
2022-08-03T02:28:38.711Z,19.61
2022-08-03T02:31:11.855Z,19.59
2022-08-03T02:33:43.334Z,19.54
2022-08-03T02:36:13.373Z,19.51
2022-08-03T02:38:43.575Z,19.45
2022-08-03T02:41:17.742Z,19.40
2022-08-03T02:44:06.134Z,19.36
2022-08-03T02:46:38.737Z,19.47
2022-08-03T02:49:35.001Z,19.49
2022-08-03T02:51:54.430Z,19.35
2022-08-03T02:54:23.599Z,19.28
2022-08-03T02:56:51.716Z,19.38
2022-08-03T02:59:20.139Z,19.29
2022-08-03T03:01:47.679Z,19.23
2022-08-03T03:04:15.444Z,19.19
2022-08-03T03:06:44.452Z,19.22
2022-08-03T03:09:14.357Z,19.24
2022-08-03T03:11:41.604Z,19.33
2022-08-03T03:14:11.414Z,19.26
2022-08-03T03:16:39.494Z,19.32
2022-08-03T03:19:08.603Z,19.29
2022-08-03T03:21:36.671Z,19.24
2022-08-03T03:24:05.008Z,19.38
2022-08-03T03:26:32.216Z,19.36
2022-08-03T03:28:59.305Z,19.28
2022-08-03T03:31:26.000Z,19.16
2022-08-03T03:33:52.860Z,19.28
2022-08-03T03:36:19.666Z,19.23
2022-08-03T03:38:46.395Z,19.13
2022-08-03T03:41:13.238Z,19.13
2022-08-03T03:43:40.134Z,19.06
2022-08-03T03:46:06.804Z,19.35
2022-08-03T03:48:33.697Z,19.29
2022-08-03T03:51:01.178Z,19.13
2022-08-03T03:53:27.725Z,19.01
2022-08-03T03:56:01.673Z,19.06
2022-08-03T03:58:30.044Z,19.05
2022-08-03T04:00:56.754Z,19.08
2022-08-03T04:03:23.546Z,19.09
2022-08-03T04:06:08.951Z,18.95
2022-08-03T04:08:54.297Z,19.06
2022-08-03T04:11:27.482Z,19.15
2022-08-03T04:14:12.897Z,19.12
2022-08-03T04:16:44.009Z,19.13
2022-08-03T04:19:14.269Z,19.10
2022-08-03T04:21:44.459Z,19.16
2022-08-03T04:24:13.614Z,19.10
2022-08-03T04:26:42.837Z,19.18
2022-08-03T04:29:12.029Z,19.29
2022-08-03T04:31:40.068Z,19.19
2022-08-03T04:34:07.794Z,19.29
2022-08-03T04:36:40.159Z,19.30
2022-08-03T04:39:27.717Z,19.32
2022-08-03T04:42:08.802Z,19.29
2022-08-03T04:44:41.677Z,19.42
2022-08-03T04:47:09.020Z,19.49
2022-08-03T04:49:37.973Z,19.47
2022-08-03T04:52:07.301Z,19.43
2022-08-03T04:54:50.001Z,19.32
2022-08-03T04:57:22.310Z,19.49
2022-08-03T04:59:58.269Z,19.67
2022-08-03T05:02:28.671Z,19.71
2022-08-03T05:04:55.242Z,19.68
2022-08-03T05:07:24.980Z,19.80
2022-08-03T05:09:57.568Z,19.80
2022-08-03T05:12:32.601Z,19.80
2022-08-03T05:15:00.112Z,19.85
2022-08-03T05:17:27.066Z,19.90
2022-08-03T05:19:53.670Z,19.98
2022-08-03T05:22:20.896Z,20.07
2022-08-03T05:24:47.547Z,20.07
2022-08-03T05:27:19.309Z,20.07
2022-08-03T05:29:46.811Z,20.18
2022-08-03T05:32:13.550Z,20.15
2022-08-03T05:34:40.131Z,20.21
2022-08-03T05:37:07.513Z,20.24
2022-08-03T05:39:34.883Z,20.28
2022-08-03T05:42:02.189Z,20.36
2022-08-03T05:44:28.829Z,20.43
2022-08-03T05:46:57.574Z,20.55
2022-08-03T05:49:24.168Z,20.63
2022-08-03T05:52:00.082Z,20.76
2022-08-03T05:54:56.042Z,20.83
2022-08-03T05:57:23.641Z,20.88
2022-08-03T05:59:53.825Z,20.94
2022-08-03T06:02:26.619Z,21.04
2022-08-03T06:04:53.266Z,21.10
2022-08-03T06:07:19.935Z,21.30
2022-08-03T06:10:35.427Z,21.38
2022-08-03T06:12:36.261Z,21.44
2022-08-03T06:15:04.693Z,21.52
2022-08-03T06:17:37.335Z,21.62
2022-08-03T06:20:05.614Z,21.75
2022-08-03T06:22:32.243Z,21.72
2022-08-03T06:24:59.014Z,21.79
2022-08-03T06:27:37.006Z,21.76
2022-08-03T06:30:04.732Z,21.90
2022-08-03T06:32:31.355Z,22.02
2022-08-03T06:34:57.935Z,22.17
2022-08-03T06:37:24.848Z,22.34
2022-08-03T06:39:51.450Z,22.48
2022-08-03T06:42:18.366Z,22.65
2022-08-03T06:44:47.701Z,22.82
2022-08-03T06:47:14.274Z,22.90
2022-08-03T06:49:41.756Z,22.87
2022-08-03T06:52:08.361Z,22.82
2022-08-03T06:54:36.063Z,22.98
2022-08-03T06:57:02.927Z,23.07
2022-08-03T07:00:10.939Z,23.18
2022-08-03T07:02:19.116Z,23.29
2022-08-03T07:04:47.517Z,23.38
2022-08-03T07:07:14.208Z,23.62
2022-08-03T07:09:40.868Z,23.66
2022-08-03T07:12:08.670Z,23.81
2022-08-03T07:14:35.242Z,23.86
2022-08-03T07:17:01.855Z,23.94
2022-08-03T07:19:38.070Z,24.04
2022-08-03T07:22:04.863Z,24.10
2022-08-03T07:24:31.439Z,24.31
2022-08-03T07:26:58.078Z,24.45
2022-08-03T07:29:25.112Z,24.52
2022-08-03T07:31:51.741Z,24.59
2022-08-03T07:34:18.481Z,24.82
2022-08-03T07:36:45.048Z,24.66
2022-08-03T07:39:16.639Z,24.76
2022-08-03T07:41:44.773Z,25.00
2022-08-03T07:44:11.472Z,25.13
2022-08-03T07:46:38.017Z,25.36
2022-08-03T07:49:05.387Z,25.51
2022-08-03T07:51:31.905Z,25.64
2022-08-03T07:53:59.185Z,25.73
2022-08-03T07:56:25.877Z,25.85
2022-08-03T07:58:53.568Z,25.80
2022-08-03T08:01:20.566Z,25.91
2022-08-03T08:03:53.113Z,25.88
2022-08-03T08:06:21.033Z,26.42
2022-08-03T08:08:47.596Z,27.35
2022-08-03T08:11:14.312Z,27.78
2022-08-03T08:13:40.952Z,28.10
2022-08-03T08:16:07.602Z,28.56
2022-08-03T08:18:34.614Z,28.60
2022-08-03T08:21:03.303Z,28.74
2022-08-03T08:23:42.149Z,28.99
2022-08-03T08:26:09.671Z,28.99
2022-08-03T08:28:36.235Z,29.25
2022-08-03T08:31:02.887Z,29.51
2022-08-03T08:33:47.907Z,29.87
2022-08-03T08:36:16.118Z,30.04
2022-08-03T08:38:44.715Z,29.97
2022-08-03T08:41:11.875Z,30.33
2022-08-03T08:43:38.678Z,30.17
2022-08-03T08:46:08.385Z,30.52
2022-08-03T08:48:36.384Z,30.46
2022-08-03T08:51:03.477Z,30.65
2022-08-03T08:53:32.424Z,31.20
2022-08-03T08:56:01.645Z,31.35
2022-08-03T08:58:41.526Z,31.65
2022-08-03T09:01:08.145Z,31.16
2022-08-03T09:03:34.792Z,31.84
2022-08-03T09:06:02.604Z,32.25
2022-08-03T09:08:30.662Z,32.13
2022-08-03T09:10:57.421Z,31.94
2022-08-03T09:13:24.534Z,31.84
2022-08-03T09:16:15.051Z,31.72
2022-08-03T09:18:44.447Z,32.05
2022-08-03T09:21:35.512Z,32.50
2022-08-03T09:24:05.673Z,31.57
2022-08-03T09:26:35.902Z,31.50
2022-08-03T09:29:11.209Z,31.64
2022-08-03T09:31:46.020Z,31.61
2022-08-03T09:34:15.331Z,32.09
2022-08-03T09:36:41.925Z,32.33
2022-08-03T09:39:15.051Z,31.98
2022-08-03T09:41:48.396Z,32.50
2022-08-03T09:44:24.267Z,32.88
2022-08-03T09:46:55.439Z,32.52
2022-08-03T09:49:22.611Z,32.16
2022-08-03T09:52:37.582Z,31.89
2022-08-03T09:54:36.022Z,32.49
2022-08-03T09:57:02.783Z,32.59
2022-08-03T09:59:31.017Z,32.62
2022-08-03T10:02:00.009Z,32.62
2022-08-03T10:04:26.875Z,33.30
2022-08-03T10:07:23.746Z,33.11
2022-08-03T10:09:55.824Z,34.23
2022-08-03T10:12:22.662Z,33.77
2022-08-03T10:14:52.386Z,33.89
2022-08-03T10:17:20.588Z,33.78
2022-08-03T10:19:47.945Z,32.99
2022-08-03T10:22:22.096Z,33.47
2022-08-03T10:25:11.612Z,33.72
2022-08-03T10:27:45.054Z,34.03
2022-08-03T10:30:12.269Z,34.59
2022-08-03T10:32:42.505Z,33.89
2022-08-03T10:35:19.650Z,34.20
2022-08-03T10:38:26.259Z,33.14
2022-08-03T10:40:58.750Z,33.08
2022-08-03T10:43:28.958Z,33.90
2022-08-03T10:45:56.861Z,33.61
2022-08-03T10:48:24.290Z,33.59
2022-08-03T10:50:51.095Z,33.58
2022-08-03T10:53:34.766Z,34.52
2022-08-03T10:56:35.734Z,34.64
2022-08-03T10:59:06.982Z,34.98
2022-08-03T11:02:00.405Z,35.21
2022-08-03T11:04:29.967Z,35.68
2022-08-03T11:07:16.473Z,36.06
2022-08-03T11:09:44.007Z,35.10
2022-08-03T11:12:30.326Z,34.68
2022-08-03T11:15:03.939Z,34.73
2022-08-03T11:17:31.797Z,35.00
2022-08-03T11:19:58.763Z,34.93
2022-08-03T11:22:26.144Z,35.27
2022-08-03T11:24:56.458Z,35.41
2022-08-03T11:27:40.941Z,35.25
2022-08-03T11:30:27.832Z,36.10
2022-08-03T11:32:58.022Z,35.45
2022-08-03T11:35:29.397Z,35.20
2022-08-03T11:38:03.302Z,35.55
2022-08-03T11:40:44.957Z,35.05
2022-08-03T11:43:31.447Z,35.30
2022-08-03T11:46:03.421Z,36.06
2022-08-03T11:48:38.788Z,34.74
2022-08-03T11:51:08.229Z,36.09
2022-08-03T11:53:42.012Z,36.26
2022-08-03T11:56:12.971Z,35.83
2022-08-03T11:59:10.956Z,35.71
2022-08-03T12:01:34.415Z,35.55
2022-08-03T12:04:05.410Z,35.34
2022-08-03T12:06:52.008Z,35.14
2022-08-03T12:09:18.645Z,35.54
2022-08-03T12:11:51.653Z,35.72
2022-08-03T12:14:48.940Z,36.46
2022-08-03T12:17:14.946Z,36.08
2022-08-03T12:19:42.988Z,36.46
2022-08-03T12:22:09.633Z,36.83
2022-08-03T12:24:42.740Z,36.95
2022-08-03T12:27:09.635Z,36.78
2022-08-03T12:29:36.550Z,36.60
2022-08-03T12:32:03.391Z,36.02
2022-08-03T12:34:47.449Z,35.78
2022-08-03T12:37:21.883Z,36.50
2022-08-03T12:40:00.524Z,36.98
2022-08-03T12:42:32.140Z,36.98
2022-08-03T12:44:58.632Z,36.77
2022-08-03T12:47:25.262Z,36.67
2022-08-03T12:49:52.759Z,35.99
2022-08-03T12:52:22.207Z,36.44
2022-08-03T12:54:59.711Z,36.06
2022-08-03T12:57:41.457Z,35.75
2022-08-03T13:00:21.830Z,35.86
2022-08-03T13:03:39.134Z,34.73
2022-08-03T13:05:55.025Z,34.74
2022-08-03T13:08:23.608Z,34.68
2022-08-03T13:10:50.831Z,35.48
2022-08-03T13:13:17.489Z,35.64
2022-08-03T13:15:47.996Z,36.36
2022-08-03T13:18:17.212Z,35.99
2022-08-03T13:20:44.390Z,36.33
2022-08-03T13:23:15.514Z,36.16
2022-08-03T13:25:55.009Z,36.09
2022-08-03T13:28:22.600Z,35.90
2022-08-03T13:30:49.315Z,36.00
2022-08-03T13:33:16.116Z,35.79
2022-08-03T13:35:42.723Z,35.98
2022-08-03T13:38:09.358Z,36.08
2022-08-03T13:40:41.624Z,36.13
2022-08-03T13:43:09.105Z,36.06
2022-08-03T13:45:35.806Z,36.46
2022-08-03T13:48:02.545Z,36.73
2022-08-03T13:50:30.111Z,36.66
2022-08-03T13:52:57.968Z,36.17
2022-08-03T13:55:24.827Z,36.54
2022-08-03T13:58:03.024Z,36.02
2022-08-03T14:00:33.907Z,37.24
2022-08-03T14:03:07.992Z,37.28
2022-08-03T14:05:39.238Z,37.13
2022-08-03T14:08:07.293Z,37.49
2022-08-03T14:10:39.753Z,37.65
2022-08-03T14:13:07.247Z,38.04
2022-08-03T14:15:37.481Z,38.45
2022-08-03T14:18:05.512Z,37.99
2022-08-03T14:20:37.512Z,38.04
2022-08-03T14:23:06.967Z,37.58
2022-08-03T14:25:49.851Z,37.49
2022-08-03T14:28:18.665Z,37.88
2022-08-03T14:30:45.469Z,38.10
2022-08-03T14:33:12.052Z,37.49
2022-08-03T14:35:38.724Z,37.55
2022-08-03T14:38:06.173Z,37.04
2022-08-03T14:40:32.946Z,36.54
2022-08-03T14:42:59.611Z,37.10
2022-08-03T14:45:26.184Z,37.52
2022-08-03T14:50:10.425Z,37.49
2022-08-03T14:50:44.180Z,36.58
2022-08-03T14:53:12.734Z,37.62
2022-08-03T14:55:49.384Z,37.58
2022-08-03T14:58:21.061Z,37.44
2022-08-03T15:00:49.561Z,36.05
2022-08-03T15:03:17.524Z,36.19
2022-08-03T15:05:44.737Z,36.15
2022-08-03T15:08:11.813Z,37.04
2022-08-03T15:10:40.659Z,37.22
2022-08-03T15:13:12.811Z,38.09
2022-08-03T15:15:40.211Z,38.71
2022-08-03T15:18:06.870Z,39.38
2022-08-03T15:20:43.877Z,39.41
2022-08-03T15:23:11.812Z,38.71
2022-08-03T15:26:32.241Z,39.39
2022-08-03T15:28:25.304Z,38.66
2022-08-03T15:30:53.888Z,38.99
2022-08-03T15:33:20.630Z,38.95
2022-08-03T15:35:47.866Z,38.67
2022-08-03T15:38:14.837Z,38.95
2022-08-03T15:40:41.835Z,38.94
2022-08-03T15:43:08.799Z,38.44
2022-08-03T15:45:36.332Z,38.00
2022-08-03T15:48:05.219Z,38.09
2022-08-03T15:50:31.830Z,37.94
2022-08-03T15:52:58.446Z,38.37
2022-08-03T15:55:25.147Z,37.68
2022-08-03T15:59:07.604Z,38.19
2022-08-03T16:00:39.646Z,37.22
2022-08-03T16:03:06.287Z,36.68
2022-08-03T16:05:33.067Z,36.43
2022-08-03T16:08:03.466Z,36.26
2022-08-03T16:10:31.460Z,36.50
2022-08-03T16:13:00.852Z,37.26
2022-08-03T16:15:28.044Z,37.29
2022-08-03T16:17:54.864Z,37.19
2022-08-03T16:20:30.862Z,37.53
2022-08-03T16:23:00.855Z,37.63
2022-08-03T16:25:33.158Z,37.70
2022-08-03T16:28:08.177Z,37.51
2022-08-03T16:30:40.180Z,37.34
2022-08-03T16:33:06.973Z,37.88
2022-08-03T16:35:33.881Z,37.36
2022-08-03T16:38:00.616Z,37.01
2022-08-03T16:40:27.451Z,37.42
2022-08-03T16:42:54.509Z,37.70
2022-08-03T16:45:21.644Z,36.64
2022-08-03T16:47:48.330Z,37.24
2022-08-03T16:50:28.548Z,36.76
2022-08-03T16:52:55.204Z,37.04
2022-08-03T16:55:48.885Z,37.13
2022-08-03T16:58:08.576Z,36.29
2022-08-03T17:00:41.533Z,36.33
2022-08-03T17:03:12.531Z,35.92
2022-08-03T17:05:48.246Z,35.86
2022-08-03T17:08:18.930Z,35.55
2022-08-03T17:10:53.773Z,35.52
2022-08-03T17:13:22.617Z,35.31
2022-08-03T17:16:00.752Z,35.72
2022-08-03T17:18:34.145Z,35.51
2022-08-03T17:21:06.320Z,35.39
2022-08-03T17:23:37.307Z,35.65
2022-08-03T17:26:10.623Z,35.18
2022-08-03T17:28:51.983Z,34.94
2022-08-03T17:31:31.234Z,35.27
2022-08-03T17:34:01.570Z,35.17
2022-08-03T17:36:53.922Z,35.17
2022-08-03T17:39:17.975Z,34.87
2022-08-03T17:41:48.995Z,34.93
2022-08-03T17:44:37.668Z,34.73
2022-08-03T17:47:07.147Z,34.80
2022-08-03T17:49:39.786Z,34.49
2022-08-03T17:52:28.254Z,34.78
2022-08-03T17:55:55.231Z,34.47
2022-08-03T17:58:02.803Z,34.36
2022-08-03T18:00:52.141Z,34.05
2022-08-03T18:03:58.126Z,34.22
2022-08-03T18:06:27.937Z,34.05
2022-08-03T18:09:04.914Z,33.79
2022-08-03T18:11:50.739Z,33.74
2022-08-03T18:14:29.528Z,33.55
2022-08-03T18:17:04.902Z,33.54
2022-08-03T18:20:02.660Z,33.22
2022-08-03T18:22:25.251Z,32.99
2022-08-03T18:24:52.669Z,33.04
2022-08-03T18:27:21.349Z,32.80
2022-08-03T18:29:49.820Z,32.67
2022-08-03T18:32:18.154Z,32.50
2022-08-03T18:34:53.055Z,32.43
2022-08-03T18:37:25.251Z,32.22
2022-08-03T18:39:55.695Z,32.24
2022-08-03T18:42:26.216Z,32.09
2022-08-03T18:44:56.144Z,31.92
2022-08-03T18:47:52.103Z,31.85
2022-08-03T18:50:57.871Z,31.77
2022-08-03T18:54:03.222Z,31.68
2022-08-03T18:56:45.000Z,31.54
2022-08-03T18:59:30.273Z,31.21
2022-08-03T19:02:05.499Z,31.30
2022-08-03T19:04:44.765Z,31.01
2022-08-03T19:07:17.466Z,30.99
2022-08-03T19:09:54.614Z,30.93
2022-08-03T19:12:33.812Z,30.87
2022-08-03T19:15:10.434Z,30.72
2022-08-03T19:17:53.309Z,30.66
2022-08-03T19:20:34.994Z,30.52
2022-08-03T19:23:01.842Z,30.48
2022-08-03T19:25:34.414Z,30.35
2022-08-03T19:28:03.915Z,30.14
2022-08-03T19:30:38.998Z,30.12
2022-08-03T19:33:15.637Z,30.04
2022-08-03T19:35:54.990Z,29.88
2022-08-03T19:41:13.970Z,29.97
2022-08-03T19:43:53.210Z,29.81
2022-08-03T19:46:22.285Z,29.54
2022-08-03T19:49:10.720Z,29.42
2022-08-03T19:52:02.512Z,29.22
2022-08-03T19:54:45.773Z,28.99
2022-08-03T19:57:23.268Z,29.03
2022-08-03T19:59:52.541Z,29.02
2022-08-03T20:02:26.294Z,28.92
2022-08-03T20:04:57.638Z,29.03
2022-08-03T20:07:28.223Z,28.88
2022-08-03T20:09:56.662Z,28.63
2022-08-03T20:12:27.465Z,28.49
2022-08-03T20:14:57.401Z,28.63
2022-08-03T20:17:54.422Z,28.60
2022-08-03T20:20:10.727Z,28.38
2022-08-03T21:13:02.596Z,29.93
2022-08-03T21:44:49.112Z,26.39
2022-08-03T21:47:16.167Z,26.25
2022-08-03T21:50:07.622Z,26.46
2022-08-03T21:52:41.119Z,26.39
2022-08-03T21:55:08.088Z,26.36
2022-08-03T21:57:37.669Z,26.35
2022-08-03T22:00:14.720Z,26.36
2022-08-03T22:02:45.047Z,26.22
2022-08-03T22:05:24.936Z,26.29
2022-08-03T22:07:56.826Z,26.15
2022-08-03T22:10:23.731Z,26.09
2022-08-03T22:12:50.431Z,26.09
2022-08-03T22:15:17.294Z,26.06
2022-08-03T22:17:55.937Z,25.91
2022-08-03T22:20:24.411Z,25.92
2022-08-03T22:22:55.797Z,25.81
2022-08-03T22:25:28.766Z,25.67
2022-08-03T22:27:56.361Z,25.63
2022-08-03T22:30:22.967Z,25.70
2022-08-03T22:32:51.962Z,25.71
2022-08-03T22:35:21.380Z,25.65
2022-08-03T22:37:54.238Z,25.54
2022-08-03T22:40:21.281Z,25.58
2022-08-03T22:42:52.215Z,25.48
2022-08-03T22:46:07.542Z,25.50
2022-08-03T22:48:07.527Z,25.50
2022-08-03T22:50:34.976Z,25.40
2022-08-03T22:53:01.776Z,25.50
2022-08-03T22:55:28.391Z,25.44
2022-08-03T22:57:56.035Z,25.37
2022-08-03T23:00:23.774Z,25.24
2022-08-03T23:02:51.018Z,25.12
2022-08-03T23:06:02.592Z,25.24
2022-08-03T23:08:13.977Z,25.20
2022-08-03T23:10:46.847Z,25.17
2022-08-03T23:13:16.443Z,25.23
2022-08-03T23:15:56.808Z,25.20
2022-08-03T23:18:24.875Z,25.06
2022-08-03T23:20:53.265Z,24.99
2022-08-03T23:23:20.193Z,24.93
2022-08-03T23:25:49.828Z,24.87
2022-08-03T23:28:17.334Z,24.90
2022-08-03T23:30:45.531Z,24.78
2022-08-03T23:33:14.966Z,24.76
2022-08-03T23:36:18.727Z,24.75
2022-08-03T23:38:48.136Z,24.79
2022-08-03T23:41:15.213Z,24.64
2022-08-03T23:43:51.757Z,24.69
2022-08-03T23:46:22.176Z,24.61
2022-08-03T23:48:49.618Z,24.71
2022-08-03T23:51:40.131Z,24.47
2022-08-03T23:54:23.948Z,24.59
2022-08-03T23:56:59.964Z,24.41
